createdAt,value
2022-12-08T00:04:27.005Z,42.8
2022-12-08T00:09:26.786Z,41.9
2022-12-08T00:14:26.862Z,43.4
2022-12-08T00:19:26.937Z,46.7
2022-12-08T00:24:26.768Z,45.3
2022-12-08T00:29:27.024Z,46.0
2022-12-08T00:34:26.968Z,41.6
2022-12-08T00:39:26.959Z,35.6
2022-12-08T00:44:26.650Z,35.8
2022-12-08T00:49:26.734Z,36.7
2022-12-08T00:54:26.747Z,35.8
2022-12-08T00:59:26.856Z,34.7
2022-12-08T01:04:26.607Z,32.8
2022-12-08T01:09:26.753Z,34.5
2022-12-08T01:14:26.738Z,34.8
2022-12-08T01:19:26.853Z,35.3
2022-12-08T01:24:26.588Z,34.5
2022-12-08T01:29:26.563Z,30.4
2022-12-08T01:34:26.764Z,36.4
2022-12-08T01:39:26.575Z,32.6
2022-12-08T01:44:26.559Z,36.1
2022-12-08T01:49:26.742Z,35.2
2022-12-08T01:54:26.577Z,32.2
2022-12-08T01:59:26.550Z,38.5
2022-12-08T02:04:26.969Z,36.1
2022-12-08T02:09:26.868Z,38.2
2022-12-08T02:14:26.536Z,33.0
2022-12-08T02:19:31.364Z,36.3
2022-12-08T02:24:26.525Z,34.1
2022-12-08T02:29:26.456Z,34.2
2022-12-08T02:34:26.587Z,31.9
2022-12-08T02:39:26.456Z,32.1
2022-12-08T02:44:26.547Z,30.6
2022-12-08T02:49:26.622Z,29.6
2022-12-08T02:54:26.687Z,33.6
2022-12-08T02:59:26.653Z,29.9
2022-12-08T03:04:27.001Z,28.9
2022-12-08T03:09:26.454Z,26.4
2022-12-08T03:14:26.408Z,26.0
2022-12-08T03:19:26.509Z,25.8
2022-12-08T03:24:26.524Z,23.3
2022-12-08T03:29:26.357Z,27.3
2022-12-08T03:34:26.413Z,23.8
2022-12-08T03:39:26.352Z,27.0
2022-12-08T03:44:26.340Z,22.6
2022-12-08T03:49:26.505Z,22.2
2022-12-08T03:54:26.414Z,26.1
2022-12-08T03:59:26.340Z,25.1
2022-12-08T04:04:26.483Z,24.2
2022-12-08T04:09:26.514Z,26.4
2022-12-08T04:14:26.365Z,26.4
2022-12-08T04:19:26.304Z,35.8
2022-12-08T04:24:27.074Z,33.7
2022-12-08T04:29:26.271Z,138.2
2022-12-08T04:34:26.310Z,35.2
2022-12-08T04:39:26.445Z,64.4
2022-12-08T04:44:27.130Z,32.0
2022-12-08T04:49:26.283Z,107.9
2022-12-08T04:54:26.304Z,46.7
2022-12-08T04:59:26.453Z,30.0
2022-12-08T05:04:26.217Z,32.9
2022-12-08T05:09:26.402Z,28.9
2022-12-08T05:14:26.387Z,29.0
2022-12-08T05:19:26.244Z,30.9
2022-12-08T05:24:26.188Z,33.4
2022-12-08T05:29:26.294Z,30.1
2022-12-08T05:34:26.184Z,28.6
2022-12-08T05:39:26.129Z,25.7
2022-12-08T05:44:26.286Z,26.6
2022-12-08T05:49:26.123Z,25.3
2022-12-08T05:54:26.130Z,22.1
2022-12-08T05:59:26.277Z,24.3
2022-12-08T06:04:26.155Z,23.6
2022-12-08T06:09:26.069Z,25.3
2022-12-08T06:14:26.238Z,23.1
2022-12-08T06:19:26.100Z,24.9
2022-12-08T06:24:26.091Z,29.4
2022-12-08T06:29:26.199Z,38.4
2022-12-08T06:34:26.068Z,38.1
2022-12-08T06:39:26.031Z,41.3
2022-12-08T06:44:26.290Z,39.6
2022-12-08T06:49:26.078Z,43.0
2022-12-08T06:54:26.097Z,39.1
2022-12-08T06:59:26.344Z,40.9
2022-12-08T07:04:26.055Z,45.0
2022-12-08T07:09:26.008Z,44.0
2022-12-08T07:14:26.499Z,40.8
2022-12-08T07:19:25.942Z,43.3
2022-12-08T07:24:26.002Z,39.5
2022-12-08T07:29:26.462Z,44.9
2022-12-08T07:34:26.021Z,43.1
2022-12-08T07:39:26.004Z,46.0
2022-12-08T07:44:26.178Z,47.0
2022-12-08T07:49:26.050Z,49.5
2022-12-08T07:54:26.135Z,43.8
2022-12-08T07:59:26.136Z,44.1
2022-12-08T08:04:26.034Z,41.4
2022-12-08T08:09:26.072Z,43.1
2022-12-08T08:14:25.902Z,38.7
2022-12-08T08:19:25.911Z,40.0
2022-12-08T08:24:25.869Z,34.0
2022-12-08T08:29:26.087Z,37.0
2022-12-08T08:34:25.879Z,37.3
2022-12-08T08:39:25.823Z,33.4
2022-12-08T08:44:26.069Z,37.1
2022-12-08T08:49:25.786Z,32.8
2022-12-08T08:54:25.888Z,32.8
2022-12-08T08:59:25.830Z,29.2
2022-12-08T09:04:26.107Z,28.7
2022-12-08T09:09:25.808Z,28.0
2022-12-08T09:14:25.751Z,24.2
2022-12-08T09:19:25.928Z,28.6
2022-12-08T09:24:25.765Z,28.4
2022-12-08T09:29:28.756Z,28.4
2022-12-08T09:34:25.923Z,26.0
2022-12-08T09:39:25.887Z,27.5
2022-12-08T09:44:25.756Z,26.1
2022-12-08T09:49:25.795Z,31.7
2022-12-08T09:54:25.852Z,30.9
2022-12-08T09:59:25.739Z,31.3
2022-12-08T10:04:26.882Z,28.0
2022-12-08T10:09:25.886Z,26.4
2022-12-08T10:14:25.818Z,30.7
2022-12-08T10:19:25.770Z,27.1
2022-12-08T10:24:25.828Z,24.7
2022-12-08T10:29:25.686Z,29.2
2022-12-08T10:34:26.670Z,25.0
2022-12-08T10:39:27.524Z,24.6
2022-12-08T10:44:27.900Z,24.2
2022-12-08T10:49:28.755Z,24.6
2022-12-08T10:54:32.505Z,25.9
2022-12-08T10:59:29.675Z,23.4
2022-12-08T11:04:26.041Z,22.5
2022-12-08T11:09:25.744Z,24.4
2022-12-08T11:14:25.855Z,21.2
2022-12-08T11:19:25.541Z,17.8
2022-12-08T11:24:25.625Z,19.5
2022-12-08T11:29:25.667Z,15.8
2022-12-08T11:34:25.852Z,16.3
2022-12-08T11:39:25.496Z,15.3
2022-12-08T11:44:25.671Z,15.4
2022-12-08T11:49:25.569Z,17.1
2022-12-08T11:54:26.030Z,15.8
2022-12-08T11:59:25.461Z,14.0
2022-12-08T12:04:25.633Z,15.0
2022-12-08T12:09:25.666Z,16.9
2022-12-08T12:14:25.499Z,17.0
2022-12-08T12:19:25.578Z,17.3
2022-12-08T12:24:27.528Z,20.8
2022-12-08T12:29:25.577Z,16.2
2022-12-08T12:34:25.415Z,16.7
2022-12-08T12:39:25.556Z,16.6
2022-12-08T12:44:25.426Z,17.3
2022-12-08T12:49:25.454Z,12.2
2022-12-08T12:54:25.541Z,15.7
2022-12-08T12:59:25.484Z,13.8
2022-12-08T13:04:25.850Z,12.0
2022-12-08T13:09:25.724Z,13.0
2022-12-08T13:14:25.441Z,14.9
2022-12-08T13:19:25.448Z,11.9
2022-12-08T13:24:25.546Z,12.3
2022-12-08T13:29:25.531Z,25.9
2022-12-08T13:34:25.401Z,15.1
2022-12-08T13:39:25.378Z,14.4
2022-12-08T13:51:40.398Z,12.8
2022-12-08T13:59:25.521Z,22.5
2022-12-08T14:09:27.829Z,20.5
2022-12-08T14:14:53.770Z,27.7
2022-12-08T14:19:25.423Z,21.5
2022-12-08T14:24:25.373Z,27.2
2022-12-08T14:29:25.521Z,24.7
2022-12-08T14:34:25.353Z,31.0
2022-12-08T14:39:30.925Z,30.6
2022-12-08T14:44:25.455Z,48.2
2022-12-08T14:49:25.473Z,54.4
2022-12-08T14:54:25.172Z,37.6
2022-12-08T14:59:25.415Z,29.6
2022-12-08T15:04:25.554Z,31.9
2022-12-08T15:09:25.271Z,29.5
2022-12-08T15:14:25.406Z,40.4
2022-12-08T15:19:25.421Z,39.5
2022-12-08T15:24:25.158Z,54.2
2022-12-08T15:29:25.148Z,57.1
2022-12-08T15:34:25.272Z,60.8
2022-12-08T15:39:25.124Z,58.1
2022-12-08T15:44:27.385Z,77.5
2022-12-08T15:49:25.430Z,67.3
2022-12-08T15:54:26.577Z,74.8
2022-12-08T15:59:26.508Z,240.6
2022-12-08T16:05:12.055Z,193.8
2022-12-08T16:09:25.192Z,75.1
2022-12-08T16:15:23.347Z,65.3
2022-12-08T16:19:25.235Z,66.2
2022-12-08T16:24:25.873Z,68.7
2022-12-08T16:29:26.093Z,143.8
2022-12-08T16:34:25.010Z,139.1
2022-12-08T16:39:25.297Z,67.9
2022-12-08T16:44:25.196Z,61.8
2022-12-08T16:49:25.222Z,57.6
2022-12-08T16:54:25.057Z,65.6
2022-12-08T16:59:25.496Z,54.6
2022-12-08T17:04:31.798Z,55.0
2022-12-08T17:09:25.109Z,61.5
2022-12-08T17:14:25.347Z,58.3
2022-12-08T17:19:24.894Z,52.0
2022-12-08T17:24:25.116Z,64.1
2022-12-08T17:29:25.174Z,53.9
2022-12-08T17:34:25.050Z,55.6
2022-12-08T17:39:24.999Z,69.8
2022-12-08T17:44:25.207Z,67.9
2022-12-08T17:49:24.983Z,59.0
2022-12-08T17:54:25.022Z,53.9
2022-12-08T17:59:25.051Z,49.0
2022-12-08T18:04:25.682Z,57.5
2022-12-08T18:09:25.905Z,478.8
2022-12-08T18:14:24.969Z,337.0
2022-12-08T18:19:25.562Z,85.3
2022-12-08T18:24:26.016Z,119.4
2022-12-08T18:29:25.694Z,102.2
2022-12-08T18:34:25.845Z,159.3
2022-12-08T18:39:25.566Z,121.5
2022-12-08T18:44:25.815Z,108.7
2022-12-08T18:49:25.882Z,102.4
2022-12-08T18:54:37.232Z,118.3
2022-12-08T18:59:25.955Z,114.9
2022-12-08T19:04:29.451Z,387.8
2022-12-08T19:09:25.710Z,233.6
2022-12-08T19:14:27.706Z,139.4
2022-12-08T19:19:38.057Z,165.4
2022-12-08T19:24:37.924Z,159.0
2022-12-08T19:29:38.055Z,195.0
2022-12-08T19:34:38.232Z,162.3
2022-12-08T19:39:38.290Z,187.2
2022-12-08T19:44:38.453Z,334.6
2022-12-08T19:49:38.001Z,289.5
2022-12-08T19:54:38.001Z,225.9
2022-12-08T19:59:38.342Z,148.3
2022-12-08T20:04:38.476Z,140.8
2022-12-08T20:09:38.526Z,132.9
2022-12-08T20:14:42.693Z,126.3
2022-12-08T20:19:37.777Z,762.3
2022-12-08T20:24:37.784Z,197.7
2022-12-08T20:29:37.848Z,125.0
2022-12-08T20:34:37.849Z,306.2
2022-12-08T20:39:37.688Z,185.9
2022-12-08T20:44:37.650Z,229.1
2022-12-08T20:49:37.842Z,196.4
2022-12-08T20:54:37.686Z,132.2
2022-12-08T20:59:37.820Z,128.5
2022-12-08T21:04:38.057Z,113.6
2022-12-08T21:09:37.916Z,113.5
2022-12-08T21:14:37.890Z,117.5
2022-12-08T21:19:38.006Z,117.9
2022-12-08T21:24:37.844Z,109.4
2022-12-08T21:29:37.727Z,114.5
2022-12-08T21:34:37.727Z,121.6
2022-12-08T21:39:37.687Z,141.9
2022-12-08T21:44:37.586Z,103.7
2022-12-08T21:49:37.629Z,105.6
2022-12-08T21:54:37.867Z,118.1
2022-12-08T21:59:37.778Z,117.5
2022-12-08T22:04:37.752Z,300.6
2022-12-08T22:09:37.790Z,328.9
2022-12-08T22:14:37.919Z,162.7
2022-12-08T22:19:37.497Z,113.6
2022-12-08T22:24:37.858Z,110.3
2022-12-08T22:29:37.631Z,108.6
2022-12-08T22:34:37.555Z,120.1
2022-12-08T22:39:37.528Z,113.7
2022-12-08T22:44:37.608Z,128.4
2022-12-08T22:49:37.741Z,197.9
2022-12-08T22:54:37.924Z,202.6
2022-12-08T22:59:37.472Z,244.3
2022-12-08T23:04:37.663Z,206.1
2022-12-08T23:09:37.401Z,137.5
2022-12-08T23:14:37.454Z,125.6
2022-12-08T23:19:37.360Z,105.9
2022-12-08T23:24:37.369Z,120.7
2022-12-08T23:29:37.565Z,127.0
2022-12-08T23:34:37.536Z,108.4
2022-12-08T23:39:37.417Z,113.4
2022-12-08T23:44:36.695Z,100.3
2022-12-08T23:49:36.690Z,90.1
2022-12-08T23:54:36.912Z,90.0
2022-12-08T23:59:36.811Z,93.2
